sensor_id;sensor_type;location;lat;lon;timestamp;temperature;humidity
9271;DHT22;4673;53.458;9.940;2023-11-19T00:02:09;4.90;96.50
9271;DHT22;4673;53.458;9.940;2023-11-19T00:04:38;4.90;96.60
9271;DHT22;4673;53.458;9.940;2023-11-19T00:07:06;4.90;96.70
9271;DHT22;4673;53.458;9.940;2023-11-19T00:09:33;4.90;96.70
9271;DHT22;4673;53.458;9.940;2023-11-19T00:12:00;5.00;96.70
9271;DHT22;4673;53.458;9.940;2023-11-19T00:14:26;4.90;96.80
9271;DHT22;4673;53.458;9.940;2023-11-19T00:16:52;5.00;96.80
9271;DHT22;4673;53.458;9.940;2023-11-19T00:19:19;5.10;97.00
9271;DHT22;4673;53.458;9.940;2023-11-19T00:21:44;4.90;96.90
9271;DHT22;4673;53.458;9.940;2023-11-19T00:24:11;4.90;96.90
9271;DHT22;4673;53.458;9.940;2023-11-19T00:26:38;5.00;96.90
9271;DHT22;4673;53.458;9.940;2023-11-19T00:29:04;5.00;96.90
9271;DHT22;4673;53.458;9.940;2023-11-19T00:31:29;5.00;97.00
9271;DHT22;4673;53.458;9.940;2023-11-19T00:33:55;5.00;97.00
9271;DHT22;4673;53.458;9.940;2023-11-19T00:36:20;5.00;97.00
9271;DHT22;4673;53.458;9.940;2023-11-19T00:38:46;5.00;97.10
9271;DHT22;4673;53.458;9.940;2023-11-19T00:41:12;5.00;97.10
9271;DHT22;4673;53.458;9.940;2023-11-19T00:43:37;5.00;97.20
9271;DHT22;4673;53.458;9.940;2023-11-19T00:46:06;5.00;97.20
9271;DHT22;4673;53.458;9.940;2023-11-19T00:48:32;5.10;97.40
9271;DHT22;4673;53.458;9.940;2023-11-19T00:50:58;5.10;97.40
9271;DHT22;4673;53.458;9.940;2023-11-19T00:53:23;5.10;97.40
9271;DHT22;4673;53.458;9.940;2023-11-19T00:55:49;5.10;97.40
9271;DHT22;4673;53.458;9.940;2023-11-19T00:58:14;5.00;97.30
9271;DHT22;4673;53.458;9.940;2023-11-19T01:00:40;5.10;97.50
9271;DHT22;4673;53.458;9.940;2023-11-19T01:05:32;5.10;97.60
9271;DHT22;4673;53.458;9.940;2023-11-19T01:07:58;5.10;97.60
9271;DHT22;4673;53.458;9.940;2023-11-19T01:10:24;5.10;97.60
9271;DHT22;4673;53.458;9.940;2023-11-19T01:12:51;5.10;97.60
9271;DHT22;4673;53.458;9.940;2023-11-19T01:15:17;5.10;97.60
9271;DHT22;4673;53.458;9.940;2023-11-19T01:17:44;5.00;97.50
9271;DHT22;4673;53.458;9.940;2023-11-19T01:20:11;5.10;97.70
9271;DHT22;4673;53.458;9.940;2023-11-19T01:22:39;5.10;97.70
9271;DHT22;4673;53.458;9.940;2023-11-19T01:25:05;5.10;97.70
9271;DHT22;4673;53.458;9.940;2023-11-19T01:27:31;5.10;97.80
9271;DHT22;4673;53.458;9.940;2023-11-19T01:29:57;5.10;97.70
9271;DHT22;4673;53.458;9.940;2023-11-19T01:32:22;5.20;97.80
9271;DHT22;4673;53.458;9.940;2023-11-19T01:34:49;5.20;97.80
9271;DHT22;4673;53.458;9.940;2023-11-19T01:37:15;5.20;97.90
9271;DHT22;4673;53.458;9.940;2023-11-19T01:39:44;5.20;97.90
9271;DHT22;4673;53.458;9.940;2023-11-19T01:42:10;5.20;97.90
9271;DHT22;4673;53.458;9.940;2023-11-19T01:44:37;5.20;97.90
9271;DHT22;4673;53.458;9.940;2023-11-19T01:47:03;5.20;98.00
9271;DHT22;4673;53.458;9.940;2023-11-19T01:49:31;5.20;98.10
9271;DHT22;4673;53.458;9.940;2023-11-19T01:51:58;5.30;98.20
9271;DHT22;4673;53.458;9.940;2023-11-19T01:54:24;5.30;98.20
9271;DHT22;4673;53.458;9.940;2023-11-19T01:56:50;5.30;98.20
9271;DHT22;4673;53.458;9.940;2023-11-19T01:59:17;5.30;98.30
9271;DHT22;4673;53.458;9.940;2023-11-19T02:01:43;5.30;98.30
9271;DHT22;4673;53.458;9.940;2023-11-19T02:04:09;5.40;98.30
9271;DHT22;4673;53.458;9.940;2023-11-19T02:06:37;5.50;98.40
9271;DHT22;4673;53.458;9.940;2023-11-19T02:09:03;5.30;98.30
9271;DHT22;4673;53.458;9.940;2023-11-19T02:11:36;5.30;98.30
9271;DHT22;4673;53.458;9.940;2023-11-19T02:14:02;5.30;98.30
9271;DHT22;4673;53.458;9.940;2023-11-19T02:16:29;5.30;98.40
9271;DHT22;4673;53.458;9.940;2023-11-19T02:18:55;5.50;98.50
9271;DHT22;4673;53.458;9.940;2023-11-19T02:21:21;5.40;98.50
9271;DHT22;4673;53.458;9.940;2023-11-19T02:23:46;5.40;98.50
9271;DHT22;4673;53.458;9.940;2023-11-19T02:26:31;5.40;98.40
9271;DHT22;4673;53.458;9.940;2023-11-19T02:28:58;5.50;98.60
9271;DHT22;4673;53.458;9.940;2023-11-19T02:31:24;5.40;98.50
9271;DHT22;4673;53.458;9.940;2023-11-19T02:33:49;5.50;98.60
9271;DHT22;4673;53.458;9.940;2023-11-19T02:36:15;5.50;98.70
9271;DHT22;4673;53.458;9.940;2023-11-19T02:38:42;5.50;98.70
9271;DHT22;4673;53.458;9.940;2023-11-19T02:41:09;5.60;98.70
9271;DHT22;4673;53.458;9.940;2023-11-19T02:43:36;5.50;98.70
9271;DHT22;4673;53.458;9.940;2023-11-19T02:46:03;5.60;98.70
9271;DHT22;4673;53.458;9.940;2023-11-19T02:48:36;5.60;98.80
9271;DHT22;4673;53.458;9.940;2023-11-19T02:51:02;5.60;98.80
9271;DHT22;4673;53.458;9.940;2023-11-19T02:53:35;5.60;98.80
9271;DHT22;4673;53.458;9.940;2023-11-19T02:56:00;5.60;98.80
9271;DHT22;4673;53.458;9.940;2023-11-19T02:58:27;5.70;99.00
9271;DHT22;4673;53.458;9.940;2023-11-19T03:00:54;5.70;99.00
9271;DHT22;4673;53.458;9.940;2023-11-19T03:03:24;5.70;99.00
9271;DHT22;4673;53.458;9.940;2023-11-19T03:05:54;5.70;99.00
9271;DHT22;4673;53.458;9.940;2023-11-19T03:08:20;5.70;99.00
9271;DHT22;4673;53.458;9.940;2023-11-19T03:10:47;5.70;99.00
9271;DHT22;4673;53.458;9.940;2023-11-19T03:13:13;5.70;99.00
9271;DHT22;4673;53.458;9.940;2023-11-19T03:15:39;5.70;99.10
9271;DHT22;4673;53.458;9.940;2023-11-19T03:18:05;5.70;99.10
9271;DHT22;4673;53.458;9.940;2023-11-19T03:20:31;5.70;99.00
9271;DHT22;4673;53.458;9.940;2023-11-19T03:22:56;5.80;99.10
9271;DHT22;4673;53.458;9.940;2023-11-19T03:25:25;5.80;99.10
9271;DHT22;4673;53.458;9.940;2023-11-19T03:27:52;5.80;99.10
9271;DHT22;4673;53.458;9.940;2023-11-19T03:30:18;5.80;99.10
9271;DHT22;4673;53.458;9.940;2023-11-19T03:32:46;5.80;99.20
9271;DHT22;4673;53.458;9.940;2023-11-19T03:35:12;5.90;99.30
9271;DHT22;4673;53.458;9.940;2023-11-19T03:37:37;5.90;99.40
9271;DHT22;4673;53.458;9.940;2023-11-19T03:40:05;5.90;99.40
9271;DHT22;4673;53.458;9.940;2023-11-19T03:42:31;6.00;99.40
9271;DHT22;4673;53.458;9.940;2023-11-19T03:44:57;6.00;99.40
9271;DHT22;4673;53.458;9.940;2023-11-19T03:47:23;6.00;99.40
9271;DHT22;4673;53.458;9.940;2023-11-19T03:49:49;6.10;99.60
9271;DHT22;4673;53.458;9.940;2023-11-19T03:52:16;6.10;99.60
9271;DHT22;4673;53.458;9.940;2023-11-19T03:54:41;6.20;99.60
9271;DHT22;4673;53.458;9.940;2023-11-19T03:57:07;6.20;99.70
9271;DHT22;4673;53.458;9.940;2023-11-19T03:59:33;6.30;99.80
9271;DHT22;4673;53.458;9.940;2023-11-19T04:01:59;6.30;99.80
9271;DHT22;4673;53.458;9.940;2023-11-19T04:04:26;6.40;99.80
9271;DHT22;4673;53.458;9.940;2023-11-19T04:06:53;6.50;99.90
9271;DHT22;4673;53.458;9.940;2023-11-19T04:09:18;6.50;99.90
9271;DHT22;4673;53.458;9.940;2023-11-19T04:11:44;6.70;99.90
9271;DHT22;4673;53.458;9.940;2023-11-19T04:14:15;6.70;99.90
9271;DHT22;4673;53.458;9.940;2023-11-19T04:16:46;6.80;99.90
9271;DHT22;4673;53.458;9.940;2023-11-19T04:19:12;6.80;99.90
9271;DHT22;4673;53.458;9.940;2023-11-19T04:21:40;6.80;99.90
9271;DHT22;4673;53.458;9.940;2023-11-19T04:24:06;6.90;99.90
9271;DHT22;4673;53.458;9.940;2023-11-19T04:26:32;7.00;99.90
9271;DHT22;4673;53.458;9.940;2023-11-19T04:28:58;7.10;99.90
9271;DHT22;4673;53.458;9.940;2023-11-19T04:31:29;7.20;99.90
9271;DHT22;4673;53.458;9.940;2023-11-19T04:33:56;7.30;99.90
9271;DHT22;4673;53.458;9.940;2023-11-19T04:36:22;7.50;99.90
9271;DHT22;4673;53.458;9.940;2023-11-19T04:38:50;7.60;99.90
9271;DHT22;4673;53.458;9.940;2023-11-19T04:41:16;7.70;99.90
9271;DHT22;4673;53.458;9.940;2023-11-19T04:43:41;7.80;99.90
9271;DHT22;4673;53.458;9.940;2023-11-19T04:46:07;7.90;99.90
9271;DHT22;4673;53.458;9.940;2023-11-19T04:48:34;8.00;99.90
9271;DHT22;4673;53.458;9.940;2023-11-19T04:51:00;8.10;99.90
9271;DHT22;4673;53.458;9.940;2023-11-19T04:53:26;8.20;99.90
9271;DHT22;4673;53.458;9.940;2023-11-19T04:55:51;8.30;99.90
9271;DHT22;4673;53.458;9.940;2023-11-19T04:58:17;8.50;99.90
9271;DHT22;4673;53.458;9.940;2023-11-19T05:00:43;8.60;99.90
9271;DHT22;4673;53.458;9.940;2023-11-19T05:03:08;8.70;99.90
9271;DHT22;4673;53.458;9.940;2023-11-19T05:05:34;8.70;99.90
9271;DHT22;4673;53.458;9.940;2023-11-19T05:07:59;8.80;99.90
9271;DHT22;4673;53.458;9.940;2023-11-19T05:10:25;8.90;99.90
9271;DHT22;4673;53.458;9.940;2023-11-19T05:12:51;9.00;99.90
9271;DHT22;4673;53.458;9.940;2023-11-19T05:15:17;9.10;99.90
9271;DHT22;4673;53.458;9.940;2023-11-19T05:17:43;9.10;99.90
9271;DHT22;4673;53.458;9.940;2023-11-19T05:20:09;9.20;99.90
9271;DHT22;4673;53.458;9.940;2023-11-19T05:22:40;9.30;99.90
9271;DHT22;4673;53.458;9.940;2023-11-19T05:25:06;9.30;99.90
9271;DHT22;4673;53.458;9.940;2023-11-19T05:27:32;9.40;99.90
9271;DHT22;4673;53.458;9.940;2023-11-19T05:29:57;9.50;99.90
9271;DHT22;4673;53.458;9.940;2023-11-19T05:32:23;9.50;99.90
9271;DHT22;4673;53.458;9.940;2023-11-19T05:34:49;9.50;99.90
9271;DHT22;4673;53.458;9.940;2023-11-19T05:37:14;9.50;99.90
9271;DHT22;4673;53.458;9.940;2023-11-19T05:39:40;9.60;99.90
9271;DHT22;4673;53.458;9.940;2023-11-19T05:42:05;9.60;99.90
9271;DHT22;4673;53.458;9.940;2023-11-19T05:44:31;9.60;99.90
9271;DHT22;4673;53.458;9.940;2023-11-19T05:46:57;9.70;99.90
9271;DHT22;4673;53.458;9.940;2023-11-19T05:49:22;9.80;99.90
9271;DHT22;4673;53.458;9.940;2023-11-19T05:51:48;9.80;99.90
9271;DHT22;4673;53.458;9.940;2023-11-19T05:54:13;9.80;99.90
9271;DHT22;4673;53.458;9.940;2023-11-19T05:56:39;9.70;99.90
9271;DHT22;4673;53.458;9.940;2023-11-19T05:59:05;9.80;99.90
9271;DHT22;4673;53.458;9.940;2023-11-19T06:01:39;9.80;99.90
9271;DHT22;4673;53.458;9.940;2023-11-19T06:04:07;9.90;99.90
9271;DHT22;4673;53.458;9.940;2023-11-19T06:06:32;9.90;99.90
9271;DHT22;4673;53.458;9.940;2023-11-19T06:08:58;10.00;99.90
9271;DHT22;4673;53.458;9.940;2023-11-19T06:11:24;10.00;99.90
9271;DHT22;4673;53.458;9.940;2023-11-19T06:13:52;10.00;99.90
9271;DHT22;4673;53.458;9.940;2023-11-19T06:16:18;10.00;99.90
9271;DHT22;4673;53.458;9.940;2023-11-19T06:18:44;10.00;99.90
9271;DHT22;4673;53.458;9.940;2023-11-19T06:21:10;10.00;99.90
9271;DHT22;4673;53.458;9.940;2023-11-19T06:23:35;10.00;99.90
9271;DHT22;4673;53.458;9.940;2023-11-19T06:26:01;10.00;99.90
9271;DHT22;4673;53.458;9.940;2023-11-19T06:28:27;10.00;99.90
9271;DHT22;4673;53.458;9.940;2023-11-19T06:30:53;10.00;99.90
9271;DHT22;4673;53.458;9.940;2023-11-19T06:33:18;10.10;99.90
9271;DHT22;4673;53.458;9.940;2023-11-19T06:35:44;10.10;99.90
9271;DHT22;4673;53.458;9.940;2023-11-19T06:38:10;10.10;99.90
9271;DHT22;4673;53.458;9.940;2023-11-19T06:40:36;10.20;99.90
9271;DHT22;4673;53.458;9.940;2023-11-19T06:43:01;10.20;99.90
9271;DHT22;4673;53.458;9.940;2023-11-19T06:45:30;10.20;99.90
9271;DHT22;4673;53.458;9.940;2023-11-19T06:47:56;10.20;99.90
9271;DHT22;4673;53.458;9.940;2023-11-19T06:50:21;10.20;99.90
9271;DHT22;4673;53.458;9.940;2023-11-19T06:52:47;10.20;99.90
9271;DHT22;4673;53.458;9.940;2023-11-19T06:55:13;10.30;99.90
9271;DHT22;4673;53.458;9.940;2023-11-19T06:57:39;10.30;99.90
9271;DHT22;4673;53.458;9.940;2023-11-19T07:00:06;10.30;99.90
9271;DHT22;4673;53.458;9.940;2023-11-19T07:02:32;10.40;99.90
9271;DHT22;4673;53.458;9.940;2023-11-19T07:04:58;10.40;99.90
9271;DHT22;4673;53.458;9.940;2023-11-19T07:07:25;10.40;99.90
9271;DHT22;4673;53.458;9.940;2023-11-19T07:09:51;10.40;99.90
9271;DHT22;4673;53.458;9.940;2023-11-19T07:12:17;10.40;99.90
9271;DHT22;4673;53.458;9.940;2023-11-19T07:14:43;10.50;99.90
9271;DHT22;4673;53.458;9.940;2023-11-19T07:17:08;10.50;99.90
9271;DHT22;4673;53.458;9.940;2023-11-19T07:19:35;10.40;99.90
9271;DHT22;4673;53.458;9.940;2023-11-19T07:22:02;10.50;99.90
9271;DHT22;4673;53.458;9.940;2023-11-19T07:24:28;10.50;99.90
9271;DHT22;4673;53.458;9.940;2023-11-19T07:26:54;10.50;99.90
9271;DHT22;4673;53.458;9.940;2023-11-19T07:29:20;10.50;99.90
9271;DHT22;4673;53.458;9.940;2023-11-19T07:31:48;10.60;99.90
9271;DHT22;4673;53.458;9.940;2023-11-19T07:34:14;10.50;99.90
9271;DHT22;4673;53.458;9.940;2023-11-19T07:36:40;10.60;99.90
9271;DHT22;4673;53.458;9.940;2023-11-19T07:39:06;10.50;99.90
9271;DHT22;4673;53.458;9.940;2023-11-19T07:41:32;10.60;99.90
9271;DHT22;4673;53.458;9.940;2023-11-19T07:43:58;10.60;99.90
9271;DHT22;4673;53.458;9.940;2023-11-19T07:46:23;10.60;99.90
9271;DHT22;4673;53.458;9.940;2023-11-19T07:48:50;10.60;99.90
9271;DHT22;4673;53.458;9.940;2023-11-19T07:51:16;10.60;99.90
9271;DHT22;4673;53.458;9.940;2023-11-19T07:53:41;10.60;99.90
9271;DHT22;4673;53.458;9.940;2023-11-19T07:56:08;10.60;99.90
9271;DHT22;4673;53.458;9.940;2023-11-19T07:58:33;10.60;99.90
9271;DHT22;4673;53.458;9.940;2023-11-19T08:01:00;10.60;99.90
9271;DHT22;4673;53.458;9.940;2023-11-19T08:03:27;10.60;99.90
9271;DHT22;4673;53.458;9.940;2023-11-19T08:05:55;10.70;99.90
9271;DHT22;4673;53.458;9.940;2023-11-19T08:08:22;10.60;99.90
9271;DHT22;4673;53.458;9.940;2023-11-19T08:10:47;10.70;99.90
9271;DHT22;4673;53.458;9.940;2023-11-19T08:13:14;10.70;99.90
9271;DHT22;4673;53.458;9.940;2023-11-19T08:15:39;10.70;99.90
9271;DHT22;4673;53.458;9.940;2023-11-19T08:18:06;10.70;99.90
9271;DHT22;4673;53.458;9.940;2023-11-19T08:20:33;10.70;99.90
9271;DHT22;4673;53.458;9.940;2023-11-19T08:22:59;10.70;99.90
9271;DHT22;4673;53.458;9.940;2023-11-19T08:25:24;10.80;99.90
9271;DHT22;4673;53.458;9.940;2023-11-19T08:27:50;10.80;99.90
9271;DHT22;4673;53.458;9.940;2023-11-19T08:30:15;10.80;99.90
9271;DHT22;4673;53.458;9.940;2023-11-19T08:32:41;10.70;99.90
9271;DHT22;4673;53.458;9.940;2023-11-19T08:35:07;10.80;99.90
9271;DHT22;4673;53.458;9.940;2023-11-19T08:37:33;10.80;99.90
9271;DHT22;4673;53.458;9.940;2023-11-19T08:40:01;10.90;99.90
9271;DHT22;4673;53.458;9.940;2023-11-19T08:42:28;10.80;99.90
9271;DHT22;4673;53.458;9.940;2023-11-19T08:44:55;10.80;99.90
9271;DHT22;4673;53.458;9.940;2023-11-19T08:47:20;10.80;99.90
9271;DHT22;4673;53.458;9.940;2023-11-19T08:49:50;10.90;99.90
9271;DHT22;4673;53.458;9.940;2023-11-19T08:52:15;10.90;99.90
9271;DHT22;4673;53.458;9.940;2023-11-19T08:54:43;10.90;99.90
9271;DHT22;4673;53.458;9.940;2023-11-19T08:57:08;11.00;99.90
9271;DHT22;4673;53.458;9.940;2023-11-19T08:59:34;11.00;99.90
9271;DHT22;4673;53.458;9.940;2023-11-19T09:02:00;10.90;99.70
9271;DHT22;4673;53.458;9.940;2023-11-19T09:04:26;10.90;99.40
9271;DHT22;4673;53.458;9.940;2023-11-19T09:06:51;10.90;99.20
9271;DHT22;4673;53.458;9.940;2023-11-19T09:09:17;10.80;99.00
9271;DHT22;4673;53.458;9.940;2023-11-19T09:11:42;10.80;99.00
9271;DHT22;4673;53.458;9.940;2023-11-19T09:14:08;10.80;98.90
9271;DHT22;4673;53.458;9.940;2023-11-19T09:16:34;10.70;98.80
9271;DHT22;4673;53.458;9.940;2023-11-19T09:19:00;10.70;98.80
9271;DHT22;4673;53.458;9.940;2023-11-19T09:21:28;10.70;98.90
9271;DHT22;4673;53.458;9.940;2023-11-19T09:23:55;10.80;98.80
9271;DHT22;4673;53.458;9.940;2023-11-19T09:26:20;10.80;98.70
9271;DHT22;4673;53.458;9.940;2023-11-19T09:28:46;10.80;98.70
9271;DHT22;4673;53.458;9.940;2023-11-19T09:31:16;10.80;98.60
9271;DHT22;4673;53.458;9.940;2023-11-19T09:33:42;10.80;98.40
9271;DHT22;4673;53.458;9.940;2023-11-19T09:36:08;10.80;98.10
9271;DHT22;4673;53.458;9.940;2023-11-19T09:38:34;10.80;98.10
9271;DHT22;4673;53.458;9.940;2023-11-19T09:41:05;10.80;97.60
9271;DHT22;4673;53.458;9.940;2023-11-19T09:43:35;10.80;97.30
9271;DHT22;4673;53.458;9.940;2023-11-19T09:46:05;10.80;97.40
9271;DHT22;4673;53.458;9.940;2023-11-19T09:48:37;10.90;97.50
9271;DHT22;4673;53.458;9.940;2023-11-19T09:51:04;10.90;97.40
9271;DHT22;4673;53.458;9.940;2023-11-19T09:53:30;11.00;97.20
9271;DHT22;4673;53.458;9.940;2023-11-19T09:55:58;11.00;97.20
9271;DHT22;4673;53.458;9.940;2023-11-19T09:58:25;11.20;97.30
9271;DHT22;4673;53.458;9.940;2023-11-19T10:00:51;11.40;97.00
9271;DHT22;4673;53.458;9.940;2023-11-19T10:03:17;11.50;96.30
9271;DHT22;4673;53.458;9.940;2023-11-19T10:05:43;11.40;95.30
9271;DHT22;4673;53.458;9.940;2023-11-19T10:08:09;11.40;94.60
9271;DHT22;4673;53.458;9.940;2023-11-19T10:10:36;11.40;94.10
9271;DHT22;4673;53.458;9.940;2023-11-19T10:13:02;11.40;93.70
9271;DHT22;4673;53.458;9.940;2023-11-19T10:15:33;11.40;93.40
9271;DHT22;4673;53.458;9.940;2023-11-19T10:18:00;11.40;93.00
9271;DHT22;4673;53.458;9.940;2023-11-19T10:20:26;11.40;92.80
9271;DHT22;4673;53.458;9.940;2023-11-19T10:22:55;11.30;92.50
9271;DHT22;4673;53.458;9.940;2023-11-19T10:25:26;11.30;92.30
9271;DHT22;4673;53.458;9.940;2023-11-19T10:27:52;11.10;91.90
9271;DHT22;4673;53.458;9.940;2023-11-19T10:30:27;11.00;92.20
9271;DHT22;4673;53.458;9.940;2023-11-19T10:33:10;10.90;92.60
9271;DHT22;4673;53.458;9.940;2023-11-19T10:35:57;10.90;93.20
9271;DHT22;4673;53.458;9.940;2023-11-19T10:38:23;11.00;93.50
9271;DHT22;4673;53.458;9.940;2023-11-19T10:40:50;11.00;93.50
9271;DHT22;4673;53.458;9.940;2023-11-19T10:43:17;10.90;93.70
9271;DHT22;4673;53.458;9.940;2023-11-19T10:45:43;10.90;93.70
9271;DHT22;4673;53.458;9.940;2023-11-19T10:48:09;10.90;93.70
9271;DHT22;4673;53.458;9.940;2023-11-19T10:50:36;10.90;93.70
9271;DHT22;4673;53.458;9.940;2023-11-19T10:53:03;10.90;94.00
9271;DHT22;4673;53.458;9.940;2023-11-19T10:55:31;10.90;94.30
9271;DHT22;4673;53.458;9.940;2023-11-19T10:58:07;10.90;94.40
9271;DHT22;4673;53.458;9.940;2023-11-19T11:00:45;10.80;94.40
9271;DHT22;4673;53.458;9.940;2023-11-19T11:03:18;10.80;94.90
9271;DHT22;4673;53.458;9.940;2023-11-19T11:05:47;10.80;95.40
9271;DHT22;4673;53.458;9.940;2023-11-19T11:08:13;10.90;95.80
9271;DHT22;4673;53.458;9.940;2023-11-19T11:10:47;10.90;95.90
9271;DHT22;4673;53.458;9.940;2023-11-19T11:13:17;11.00;95.90
9271;DHT22;4673;53.458;9.940;2023-11-19T11:15:44;11.10;96.20
9271;DHT22;4673;53.458;9.940;2023-11-19T11:18:12;11.20;96.20
9271;DHT22;4673;53.458;9.940;2023-11-19T11:20:39;11.20;95.80
9271;DHT22;4673;53.458;9.940;2023-11-19T11:25:55;11.30;96.20
9271;DHT22;4673;53.458;9.940;2023-11-19T11:28:48;11.50;96.10
9271;DHT22;4673;53.458;9.940;2023-11-19T11:39:32;11.40;94.30
9271;DHT22;4673;53.458;9.940;2023-11-19T11:45:05;11.70;94.90
9271;DHT22;4673;53.458;9.940;2023-11-19T11:50:19;11.90;92.50
9271;DHT22;4673;53.458;9.940;2023-11-19T11:57:57;11.80;91.20
9271;DHT22;4673;53.458;9.940;2023-11-19T12:00:30;11.90;91.30
9271;DHT22;4673;53.458;9.940;2023-11-19T12:02:57;11.90;90.90
9271;DHT22;4673;53.458;9.940;2023-11-19T12:05:24;11.90;90.40
9271;DHT22;4673;53.458;9.940;2023-11-19T12:08:00;11.80;90.20
9271;DHT22;4673;53.458;9.940;2023-11-19T12:10:30;11.80;90.30
9271;DHT22;4673;53.458;9.940;2023-11-19T12:13:00;11.90;90.70
9271;DHT22;4673;53.458;9.940;2023-11-19T12:15:26;12.00;90.60
9271;DHT22;4673;53.458;9.940;2023-11-19T12:17:54;12.00;90.60
9271;DHT22;4673;53.458;9.940;2023-11-19T12:20:24;12.00;90.40
9271;DHT22;4673;53.458;9.940;2023-11-19T12:22:50;12.00;90.30
9271;DHT22;4673;53.458;9.940;2023-11-19T12:25:17;12.00;89.80
9271;DHT22;4673;53.458;9.940;2023-11-19T12:27:47;12.00;89.70
9271;DHT22;4673;53.458;9.940;2023-11-19T12:30:24;12.00;89.00
9271;DHT22;4673;53.458;9.940;2023-11-19T12:32:51;12.00;89.20
9271;DHT22;4673;53.458;9.940;2023-11-19T12:35:19;12.10;89.20
9271;DHT22;4673;53.458;9.940;2023-11-19T12:37:48;12.30;89.50
9271;DHT22;4673;53.458;9.940;2023-11-19T12:40:22;12.40;89.20
9271;DHT22;4673;53.458;9.940;2023-11-19T12:42:48;12.50;88.90
9271;DHT22;4673;53.458;9.940;2023-11-19T12:45:14;12.60;88.00
9271;DHT22;4673;53.458;9.940;2023-11-19T12:47:41;12.60;86.10
9271;DHT22;4673;53.458;9.940;2023-11-19T12:50:08;12.40;85.40
9271;DHT22;4673;53.458;9.940;2023-11-19T12:52:37;12.40;85.80
9271;DHT22;4673;53.458;9.940;2023-11-19T12:55:25;12.20;84.90
9271;DHT22;4673;53.458;9.940;2023-11-19T12:57:50;12.20;85.40
9271;DHT22;4673;53.458;9.940;2023-11-19T13:00:23;12.10;85.30
9271;DHT22;4673;53.458;9.940;2023-11-19T13:02:56;12.00;85.20
9271;DHT22;4673;53.458;9.940;2023-11-19T13:05:33;11.90;85.10
9271;DHT22;4673;53.458;9.940;2023-11-19T13:08:07;11.70;85.10
9271;DHT22;4673;53.458;9.940;2023-11-19T13:10:50;11.60;85.90
9271;DHT22;4673;53.458;9.940;2023-11-19T13:13:16;11.60;86.60
9271;DHT22;4673;53.458;9.940;2023-11-19T13:15:42;11.70;86.60
9271;DHT22;4673;53.458;9.940;2023-11-19T13:18:10;11.70;86.70
9271;DHT22;4673;53.458;9.940;2023-11-19T13:20:36;11.80;86.70
9271;DHT22;4673;53.458;9.940;2023-11-19T13:23:06;11.80;86.00
9271;DHT22;4673;53.458;9.940;2023-11-19T13:25:32;11.70;86.00
9271;DHT22;4673;53.458;9.940;2023-11-19T13:27:59;11.70;85.90
9271;DHT22;4673;53.458;9.940;2023-11-19T13:30:25;11.60;85.50
9271;DHT22;4673;53.458;9.940;2023-11-19T13:32:51;11.60;85.10
9271;DHT22;4673;53.458;9.940;2023-11-19T13:35:18;11.50;85.90
9271;DHT22;4673;53.458;9.940;2023-11-19T13:37:44;11.60;86.20
9271;DHT22;4673;53.458;9.940;2023-11-19T13:40:11;11.60;85.90
9271;DHT22;4673;53.458;9.940;2023-11-19T13:42:40;11.60;85.90
9271;DHT22;4673;53.458;9.940;2023-11-19T13:45:15;11.60;85.60
9271;DHT22;4673;53.458;9.940;2023-11-19T13:47:44;11.70;85.90
9271;DHT22;4673;53.458;9.940;2023-11-19T13:50:14;11.70;85.40
9271;DHT22;4673;53.458;9.940;2023-11-19T13:52:41;11.70;85.20
9271;DHT22;4673;53.458;9.940;2023-11-19T13:55:09;11.60;84.50
9271;DHT22;4673;53.458;9.940;2023-11-19T13:57:41;11.60;84.60
9271;DHT22;4673;53.458;9.940;2023-11-19T14:00:09;11.50;85.20
9271;DHT22;4673;53.458;9.940;2023-11-19T14:02:39;11.60;85.50
9271;DHT22;4673;53.458;9.940;2023-11-19T14:05:06;11.50;84.90
9271;DHT22;4673;53.458;9.940;2023-11-19T14:07:32;11.40;85.10
9271;DHT22;4673;53.458;9.940;2023-11-19T14:09:57;11.40;85.50
9271;DHT22;4673;53.458;9.940;2023-11-19T14:12:23;11.30;85.70
9271;DHT22;4673;53.458;9.940;2023-11-19T14:14:49;11.30;86.20
9271;DHT22;4673;53.458;9.940;2023-11-19T14:17:14;11.40;86.50
9271;DHT22;4673;53.458;9.940;2023-11-19T14:19:41;11.30;86.20
9271;DHT22;4673;53.458;9.940;2023-11-19T14:22:07;11.20;86.00
9271;DHT22;4673;53.458;9.940;2023-11-19T14:24:34;11.20;86.00
9271;DHT22;4673;53.458;9.940;2023-11-19T14:27:00;11.10;86.40
9271;DHT22;4673;53.458;9.940;2023-11-19T14:29:26;11.10;86.40
9271;DHT22;4673;53.458;9.940;2023-11-19T14:31:52;11.10;86.40
9271;DHT22;4673;53.458;9.940;2023-11-19T14:34:21;11.00;86.10
9271;DHT22;4673;53.458;9.940;2023-11-19T14:36:47;11.00;86.10
9271;DHT22;4673;53.458;9.940;2023-11-19T14:39:13;11.00;86.50
9271;DHT22;4673;53.458;9.940;2023-11-19T14:41:39;11.00;86.60
9271;DHT22;4673;53.458;9.940;2023-11-19T14:44:05;10.90;86.60
9271;DHT22;4673;53.458;9.940;2023-11-19T14:46:31;10.80;86.50
9271;DHT22;4673;53.458;9.940;2023-11-19T14:48:56;10.80;86.80
9271;DHT22;4673;53.458;9.940;2023-11-19T14:51:22;10.70;87.20
9271;DHT22;4673;53.458;9.940;2023-11-19T14:53:48;10.60;87.40
9271;DHT22;4673;53.458;9.940;2023-11-19T14:56:13;10.60;88.00
9271;DHT22;4673;53.458;9.940;2023-11-19T14:58:39;10.60;88.30
9271;DHT22;4673;53.458;9.940;2023-11-19T15:01:05;10.50;88.40
9271;DHT22;4673;53.458;9.940;2023-11-19T15:03:34;10.50;88.40
9271;DHT22;4673;53.458;9.940;2023-11-19T15:06:00;10.40;88.50
9271;DHT22;4673;53.458;9.940;2023-11-19T15:08:25;10.30;88.70
9271;DHT22;4673;53.458;9.940;2023-11-19T15:10:51;10.30;89.10
9271;DHT22;4673;53.458;9.940;2023-11-19T15:13:18;10.20;89.10
9271;DHT22;4673;53.458;9.940;2023-11-19T15:15:43;10.10;89.50
9271;DHT22;4673;53.458;9.940;2023-11-19T15:18:09;10.10;89.70
9271;DHT22;4673;53.458;9.940;2023-11-19T15:20:38;10.00;90.10
9271;DHT22;4673;53.458;9.940;2023-11-19T15:23:03;10.00;90.70
9271;DHT22;4673;53.458;9.940;2023-11-19T15:25:29;10.00;91.30
9271;DHT22;4673;53.458;9.940;2023-11-19T15:27:55;10.10;92.00
9271;DHT22;4673;53.458;9.940;2023-11-19T15:30:20;10.10;92.40
9271;DHT22;4673;53.458;9.940;2023-11-19T15:32:46;10.10;92.40
9271;DHT22;4673;53.458;9.940;2023-11-19T15:35:12;10.10;92.60
9271;DHT22;4673;53.458;9.940;2023-11-19T15:37:38;10.10;92.40
9271;DHT22;4673;53.458;9.940;2023-11-19T15:40:09;10.00;92.20
9271;DHT22;4673;53.458;9.940;2023-11-19T15:42:37;9.90;92.40
9271;DHT22;4673;53.458;9.940;2023-11-19T15:45:05;9.90;92.60
9271;DHT22;4673;53.458;9.940;2023-11-19T15:47:32;9.90;92.80
9271;DHT22;4673;53.458;9.940;2023-11-19T15:50:00;9.80;92.70
9271;DHT22;4673;53.458;9.940;2023-11-19T15:52:25;9.80;92.90
9271;DHT22;4673;53.458;9.940;2023-11-19T15:54:52;9.80;93.20
9271;DHT22;4673;53.458;9.940;2023-11-19T15:57:18;9.80;93.60
9271;DHT22;4673;53.458;9.940;2023-11-19T15:59:44;9.90;93.90
9271;DHT22;4673;53.458;9.940;2023-11-19T16:02:09;9.90;94.00
9271;DHT22;4673;53.458;9.940;2023-11-19T16:04:35;9.90;94.00
9271;DHT22;4673;53.458;9.940;2023-11-19T16:07:01;10.00;94.10
9271;DHT22;4673;53.458;9.940;2023-11-19T16:09:26;10.00;94.10
9271;DHT22;4673;53.458;9.940;2023-11-19T16:11:53;10.00;93.90
9271;DHT22;4673;53.458;9.940;2023-11-19T16:14:20;10.00;93.80
9271;DHT22;4673;53.458;9.940;2023-11-19T16:16:45;10.00;93.80
9271;DHT22;4673;53.458;9.940;2023-11-19T16:19:11;9.90;93.60
9271;DHT22;4673;53.458;9.940;2023-11-19T16:21:37;10.00;93.70
9271;DHT22;4673;53.458;9.940;2023-11-19T16:24:03;10.00;93.60
9271;DHT22;4673;53.458;9.940;2023-11-19T16:26:30;10.10;93.80
9271;DHT22;4673;53.458;9.940;2023-11-19T16:29:00;10.00;93.70
9271;DHT22;4673;53.458;9.940;2023-11-19T16:31:26;10.10;93.50